Terminal Aerodrome Forecast
Issued by NWS Northern Indiana

Home | Current Version | Previous Version | Text Only | Print | Product List | Glossary On
Versions: 1 2 3 4 5 6 7 8 9 10 11 12 13 14 15 16
000
FTUS43 KIWX 281125
TAFFWA
TAF
KFWA 281125Z 2812/2912 27010KT P6SM SCT030 BKN250
     FM282200 17010KT P6SM VCSH OVC060
     FM290000 11006KT 5SM -SHRA VCTS OVC040CB
      TEMPO 2900/2904 6SM -SHRA OVC025
     FM290700 06007KT 4SM -SHRA VCTS OVC010CB=

USA.gov is the U.S. government's official web portal to all federal, state and local government web resources and services.